sensor_id;sensor_type;location;lat;lon;timestamp;pressure;altitude;pressure_sealevel;temperature
77789;BMP280;66980;44.384;0.512;2023-03-02T00:01:28;101546.75;;;21.96
77789;BMP280;66980;44.384;0.512;2023-03-02T00:03:57;101542.66;;;21.89
77789;BMP280;66980;44.384;0.512;2023-03-02T00:06:25;101545.41;;;21.89
77789;BMP280;66980;44.384;0.512;2023-03-02T00:08:51;101540.78;;;21.84
77789;BMP280;66980;44.384;0.512;2023-03-02T00:11:17;101547.38;;;21.81
77789;BMP280;66980;44.384;0.512;2023-03-02T00:13:42;101550.47;;;21.78
77789;BMP280;66980;44.384;0.512;2023-03-02T00:16:08;101550.09;;;21.74
77789;BMP280;66980;44.384;0.512;2023-03-02T00:18:33;101540.13;;;21.70
77789;BMP280;66980;44.384;0.512;2023-03-02T00:20:59;101548.03;;;21.66
77789;BMP280;66980;44.384;0.512;2023-03-02T00:23:24;101546.88;;;21.62
77789;BMP280;66980;44.384;0.512;2023-03-02T00:25:50;101543.72;;;21.58
77789;BMP280;66980;44.384;0.512;2023-03-02T00:28:16;101542.03;;;21.55
77789;BMP280;66980;44.384;0.512;2023-03-02T00:30:41;101539.63;;;21.51
77789;BMP280;66980;44.384;0.512;2023-03-02T00:33:07;101543.47;;;21.48
77789;BMP280;66980;44.384;0.512;2023-03-02T00:35:39;101544.53;;;21.45
77789;BMP280;66980;44.384;0.512;2023-03-02T00:38:06;101537.34;;;21.42
77789;BMP280;66980;44.384;0.512;2023-03-02T00:40:33;101537.28;;;21.34
77789;BMP280;66980;44.384;0.512;2023-03-02T00:42:58;101530.81;;;21.32
77789;BMP280;66980;44.384;0.512;2023-03-02T00:45:24;101517.91;;;21.27
77789;BMP280;66980;44.384;0.512;2023-03-02T00:47:49;101525.97;;;21.25
77789;BMP280;66980;44.384;0.512;2023-03-02T00:50:15;101524.81;;;21.20
77789;BMP280;66980;44.384;0.512;2023-03-02T00:52:40;101522.63;;;21.18
77789;BMP280;66980;44.384;0.512;2023-03-02T00:55:06;101529.94;;;21.16
77789;BMP280;66980;44.384;0.512;2023-03-02T00:57:33;101522.72;;;21.13
77789;BMP280;66980;44.384;0.512;2023-03-02T00:59:59;101520.31;;;21.09
77789;BMP280;66980;44.384;0.512;2023-03-02T01:02:24;101520.84;;;21.08
77789;BMP280;66980;44.384;0.512;2023-03-02T01:04:50;101519.91;;;21.05
77789;BMP280;66980;44.384;0.512;2023-03-02T01:07:20;101524.47;;;21.03
77789;BMP280;66980;44.384;0.512;2023-03-02T01:09:46;101525.03;;;21.01
77789;BMP280;66980;44.384;0.512;2023-03-02T01:12:13;101535.44;;;20.95
77789;BMP280;66980;44.384;0.512;2023-03-02T01:14:41;101525.47;;;20.92
77789;BMP280;66980;44.384;0.512;2023-03-02T01:17:07;101525.06;;;20.88
77789;BMP280;66980;44.384;0.512;2023-03-02T01:19:34;101521.88;;;20.84
77789;BMP280;66980;44.384;0.512;2023-03-02T01:22:00;101527.22;;;20.82
77789;BMP280;66980;44.384;0.512;2023-03-02T01:24:26;101525.00;;;20.80
77789;BMP280;66980;44.384;0.512;2023-03-02T01:26:51;101524.59;;;20.76
77789;BMP280;66980;44.384;0.512;2023-03-02T01:29:17;101532.66;;;20.74
77789;BMP280;66980;44.384;0.512;2023-03-02T01:31:43;101529.47;;;20.70
77789;BMP280;66980;44.384;0.512;2023-03-02T01:34:08;101536.81;;;20.67
77789;BMP280;66980;44.384;0.512;2023-03-02T01:36:34;101542.66;;;20.64
77789;BMP280;66980;44.384;0.512;2023-03-02T01:38:59;101538.94;;;20.61
77789;BMP280;66980;44.384;0.512;2023-03-02T01:41:25;101546.28;;;20.59
77789;BMP280;66980;44.384;0.512;2023-03-02T01:43:51;101547.34;;;20.56
77789;BMP280;66980;44.384;0.512;2023-03-02T01:46:20;101542.34;;;20.54
77789;BMP280;66980;44.384;0.512;2023-03-02T01:48:53;101542.34;;;20.54
77789;BMP280;66980;44.384;0.512;2023-03-02T01:51:23;101530.91;;;20.50
77789;BMP280;66980;44.384;0.512;2023-03-02T01:53:52;101527.22;;;20.48
77789;BMP280;66980;44.384;0.512;2023-03-02T01:56:23;101520.72;;;20.45
77789;BMP280;66980;44.384;0.512;2023-03-02T01:58:53;101516.81;;;20.40
77789;BMP280;66980;44.384;0.512;2023-03-02T02:01:20;101511.09;;;20.38
77789;BMP280;66980;44.384;0.512;2023-03-02T02:03:48;101511.44;;;20.35
77789;BMP280;66980;44.384;0.512;2023-03-02T02:06:27;101499.53;;;20.27
77789;BMP280;66980;44.384;0.512;2023-03-02T02:08:56;101503.28;;;20.29
77789;BMP280;66980;44.384;0.512;2023-03-02T02:11:23;101506.78;;;20.30
77789;BMP280;66980;44.384;0.512;2023-03-02T02:13:52;101501.88;;;20.23
77789;BMP280;66980;44.384;0.512;2023-03-02T02:16:19;101509.63;;;20.24
77789;BMP280;66980;44.384;0.512;2023-03-02T02:18:44;101510.72;;;20.21
77789;BMP280;66980;44.384;0.512;2023-03-02T02:21:10;101516.75;;;20.19
77789;BMP280;66980;44.384;0.512;2023-03-02T02:23:44;101515.81;;;20.17
77789;BMP280;66980;44.384;0.512;2023-03-02T02:26:27;101524.41;;;20.13
77789;BMP280;66980;44.384;0.512;2023-03-02T02:28:59;101528.44;;;20.12
77789;BMP280;66980;44.384;0.512;2023-03-02T02:31:44;101525.97;;;20.09
77789;BMP280;66980;44.384;0.512;2023-03-02T02:34:18;101518.75;;;20.06
77789;BMP280;66980;44.384;0.512;2023-03-02T02:36:47;101520.06;;;20.05
77789;BMP280;66980;44.384;0.512;2023-03-02T02:39:19;101507.88;;;20.00
77789;BMP280;66980;44.384;0.512;2023-03-02T02:41:46;101513.38;;;20.00
77789;BMP280;66980;44.384;0.512;2023-03-02T02:44:15;101513.66;;;19.97
77789;BMP280;66980;44.384;0.512;2023-03-02T02:46:41;101517.50;;;19.93
77789;BMP280;66980;44.384;0.512;2023-03-02T02:49:20;101529.03;;;19.92
77789;BMP280;66980;44.384;0.512;2023-03-02T02:51:46;101528.09;;;19.89
77789;BMP280;66980;44.384;0.512;2023-03-02T02:54:14;101525.84;;;19.88
77789;BMP280;66980;44.384;0.512;2023-03-02T02:56:42;101520.66;;;19.84
77789;BMP280;66980;44.384;0.512;2023-03-02T02:59:20;101527.44;;;19.83
77789;BMP280;66980;44.384;0.512;2023-03-02T03:01:47;101522.97;;;19.80
77789;BMP280;66980;44.384;0.512;2023-03-02T03:04:17;101523.53;;;19.79
77789;BMP280;66980;44.384;0.512;2023-03-02T03:06:53;101529.56;;;19.77
77789;BMP280;66980;44.384;0.512;2023-03-02T03:09:20;101521.38;;;19.72
77789;BMP280;66980;44.384;0.512;2023-03-02T03:12:30;101522.13;;;19.72
77789;BMP280;66980;44.384;0.512;2023-03-02T03:14:39;101512.91;;;19.69
77789;BMP280;66980;44.384;0.512;2023-03-02T03:17:05;101515.44;;;19.67
77789;BMP280;66980;44.384;0.512;2023-03-02T03:19:42;101520.72;;;19.65
77789;BMP280;66980;44.384;0.512;2023-03-02T03:22:11;101539.06;;;19.63
77789;BMP280;66980;44.384;0.512;2023-03-02T03:24:37;101532.09;;;19.62
77789;BMP280;66980;44.384;0.512;2023-03-02T03:27:04;101535.88;;;19.59
77789;BMP280;66980;44.384;0.512;2023-03-02T03:29:32;101530.88;;;19.57
77789;BMP280;66980;44.384;0.512;2023-03-02T03:31:59;101536.19;;;19.55
77789;BMP280;66980;44.384;0.512;2023-03-02T03:34:27;101537.22;;;19.52
77789;BMP280;66980;44.384;0.512;2023-03-02T03:36:53;101534.28;;;19.50
77789;BMP280;66980;44.384;0.512;2023-03-02T03:39:19;101537.53;;;19.49
77789;BMP280;66980;44.384;0.512;2023-03-02T03:41:44;101530.56;;;19.48
77789;BMP280;66980;44.384;0.512;2023-03-02T03:44:10;101537.88;;;19.45
77789;BMP280;66980;44.384;0.512;2023-03-02T03:46:36;101527.97;;;19.36
77789;BMP280;66980;44.384;0.512;2023-03-02T03:49:02;101544.41;;;19.42
77789;BMP280;66980;44.384;0.512;2023-03-02T03:51:28;101537.00;;;19.37
77789;BMP280;66980;44.384;0.512;2023-03-02T03:54:00;101531.50;;;19.37
77789;BMP280;66980;44.384;0.512;2023-03-02T03:56:27;101543.00;;;19.35
77789;BMP280;66980;44.384;0.512;2023-03-02T03:58:53;101535.06;;;19.32
77789;BMP280;66980;44.384;0.512;2023-03-02T04:01:37;101542.56;;;19.31
77789;BMP280;66980;44.384;0.512;2023-03-02T04:04:05;101537.56;;;19.30
77789;BMP280;66980;44.384;0.512;2023-03-02T04:06:31;101538.13;;;19.28
77789;BMP280;66980;44.384;0.512;2023-03-02T04:08:56;101543.41;;;19.26
77789;BMP280;66980;44.384;0.512;2023-03-02T04:11:22;101545.97;;;19.24
77789;BMP280;66980;44.384;0.512;2023-03-02T04:13:47;101540.97;;;19.23
77789;BMP280;66980;44.384;0.512;2023-03-02T04:16:14;101536.69;;;19.21
77789;BMP280;66980;44.384;0.512;2023-03-02T04:18:40;101537.25;;;19.20
77789;BMP280;66980;44.384;0.512;2023-03-02T04:21:07;101536.25;;;19.17
77789;BMP280;66980;44.384;0.512;2023-03-02T04:23:33;101540.09;;;19.14
77789;BMP280;66980;44.384;0.512;2023-03-02T04:25:58;101540.59;;;19.13
77789;BMP280;66980;44.384;0.512;2023-03-02T04:28:29;101539.84;;;19.12
77789;BMP280;66980;44.384;0.512;2023-03-02T04:30:55;101541.13;;;19.11
77789;BMP280;66980;44.384;0.512;2023-03-02T04:33:20;101548.41;;;19.09
77789;BMP280;66980;44.384;0.512;2023-03-02T04:35:46;101542.66;;;19.07
77789;BMP280;66980;44.384;0.512;2023-03-02T04:38:11;101540.97;;;19.04
77789;BMP280;66980;44.384;0.512;2023-03-02T04:40:37;101543.53;;;19.02
77789;BMP280;66980;44.384;0.512;2023-03-02T04:43:02;101553.78;;;19.01
77789;BMP280;66980;44.384;0.512;2023-03-02T04:45:28;101548.56;;;18.98
77789;BMP280;66980;44.384;0.512;2023-03-02T04:47:53;101540.84;;;18.96
77789;BMP280;66980;44.384;0.512;2023-03-02T04:50:19;101545.59;;;18.95
77789;BMP280;66980;44.384;0.512;2023-03-02T04:52:44;101554.34;;;18.94
77789;BMP280;66980;44.384;0.512;2023-03-02T04:55:17;101535.47;;;18.85
77789;BMP280;66980;44.384;0.512;2023-03-02T04:57:42;101547.16;;;18.91
77789;BMP280;66980;44.384;0.512;2023-03-02T05:00:08;101551.69;;;18.88
77789;BMP280;66980;44.384;0.512;2023-03-02T05:02:34;101546.72;;;18.87
77789;BMP280;66980;44.384;0.512;2023-03-02T05:04:59;101542.47;;;18.86
77789;BMP280;66980;44.384;0.512;2023-03-02T05:07:25;101542.47;;;18.86
77789;BMP280;66980;44.384;0.512;2023-03-02T05:09:50;101544.78;;;18.82
77789;BMP280;66980;44.384;0.512;2023-03-02T05:12:16;101537.56;;;18.79
77789;BMP280;66980;44.384;0.512;2023-03-02T05:14:43;101531.84;;;18.77
77789;BMP280;66980;44.384;0.512;2023-03-02T05:17:09;101532.34;;;18.75
77789;BMP280;66980;44.384;0.512;2023-03-02T05:19:34;101538.41;;;18.74
77789;BMP280;66980;44.384;0.512;2023-03-02T05:22:00;101540.16;;;18.71
77789;BMP280;66980;44.384;0.512;2023-03-02T05:24:26;101545.66;;;18.71
77789;BMP280;66980;44.384;0.512;2023-03-02T05:26:51;101550.94;;;18.69
77789;BMP280;66980;44.384;0.512;2023-03-02T05:29:17;101545.97;;;18.67
77789;BMP280;66980;44.384;0.512;2023-03-02T05:31:44;101553.25;;;18.65
77789;BMP280;66980;44.384;0.512;2023-03-02T05:34:12;101551.03;;;18.63
77789;BMP280;66980;44.384;0.512;2023-03-02T05:36:38;101554.28;;;18.62
77789;BMP280;66980;44.384;0.512;2023-03-02T05:39:04;101550.56;;;18.59
77789;BMP280;66980;44.384;0.512;2023-03-02T05:41:30;101550.34;;;18.57
77789;BMP280;66980;44.384;0.512;2023-03-02T05:43:56;101550.84;;;18.56
77789;BMP280;66980;44.384;0.512;2023-03-02T05:46:21;101565.88;;;18.55
77789;BMP280;66980;44.384;0.512;2023-03-02T05:48:47;101570.38;;;18.52
77789;BMP280;66980;44.384;0.512;2023-03-02T05:51:12;101575.66;;;18.50
77789;BMP280;66980;44.384;0.512;2023-03-02T05:53:38;101583.69;;;18.48
77789;BMP280;66980;44.384;0.512;2023-03-02T05:56:03;101576.69;;;18.47
77789;BMP280;66980;44.384;0.512;2023-03-02T05:58:29;101583.00;;;18.42
77789;BMP280;66980;44.384;0.512;2023-03-02T06:00:55;101586.00;;;18.44
77789;BMP280;66980;44.384;0.512;2023-03-02T06:03:20;101598.22;;;18.43
77789;BMP280;66980;44.384;0.512;2023-03-02T06:05:45;101601.47;;;18.41
77789;BMP280;66980;44.384;0.512;2023-03-02T06:08:16;101595.03;;;18.39
77789;BMP280;66980;44.384;0.512;2023-03-02T06:10:42;101599.53;;;18.36
77789;BMP280;66980;44.384;0.512;2023-03-02T06:13:07;101601.81;;;18.32
77789;BMP280;66980;44.384;0.512;2023-03-02T06:15:33;101596.34;;;18.32
77789;BMP280;66980;44.384;0.512;2023-03-02T06:17:59;101592.63;;;18.30
77789;BMP280;66980;44.384;0.512;2023-03-02T06:20:24;101598.13;;;18.30
77789;BMP280;66980;44.384;0.512;2023-03-02T06:22:50;101602.13;;;18.29
77789;BMP280;66980;44.384;0.512;2023-03-02T06:25:18;101609.41;;;18.26
77789;BMP280;66980;44.384;0.512;2023-03-02T06:27:45;101623.84;;;18.27
77789;BMP280;66980;44.384;0.512;2023-03-02T06:30:13;101623.41;;;18.22
77789;BMP280;66980;44.384;0.512;2023-03-02T06:32:39;101629.94;;;18.19
77789;BMP280;66980;44.384;0.512;2023-03-02T06:35:05;101617.69;;;18.20
77789;BMP280;66980;44.384;0.512;2023-03-02T06:37:31;101627.19;;;18.19
77789;BMP280;66980;44.384;0.512;2023-03-02T06:39:57;101616.69;;;18.18
77789;BMP280;66980;44.384;0.512;2023-03-02T06:42:24;101631.00;;;18.16
77789;BMP280;66980;44.384;0.512;2023-03-02T06:44:50;101628.75;;;18.15
77789;BMP280;66980;44.384;0.512;2023-03-02T06:47:17;101627.28;;;18.08
77789;BMP280;66980;44.384;0.512;2023-03-02T06:49:43;101637.00;;;18.09
77789;BMP280;66980;44.384;0.512;2023-03-02T06:52:08;101646.53;;;18.08
77789;BMP280;66980;44.384;0.512;2023-03-02T06:54:35;101644.53;;;18.03
77789;BMP280;66980;44.384;0.512;2023-03-02T06:57:01;101649.78;;;18.07
77789;BMP280;66980;44.384;0.512;2023-03-02T06:59:27;101657.78;;;18.05
77789;BMP280;66980;44.384;0.512;2023-03-02T07:01:53;101659.03;;;18.04
77789;BMP280;66980;44.384;0.512;2023-03-02T07:04:18;101657.31;;;18.01
77789;BMP280;66980;44.384;0.512;2023-03-02T07:06:44;101665.56;;;18.01
77789;BMP280;66980;44.384;0.512;2023-03-02T07:09:09;101659.81;;;17.98
77789;BMP280;66980;44.384;0.512;2023-03-02T07:11:35;101658.38;;;17.97
77789;BMP280;66980;44.384;0.512;2023-03-02T07:14:01;101658.63;;;17.94
77789;BMP280;66980;44.384;0.512;2023-03-02T07:16:27;101661.38;;;17.94
77789;BMP280;66980;44.384;0.512;2023-03-02T07:18:53;101672.59;;;17.96
77789;BMP280;66980;44.384;0.512;2023-03-02T07:21:18;101677.63;;;17.92
77789;BMP280;66980;44.384;0.512;2023-03-02T07:23:44;101678.13;;;17.90
77789;BMP280;66980;44.384;0.512;2023-03-02T07:26:09;101676.13;;;17.91
77789;BMP280;66980;44.384;0.512;2023-03-02T07:28:36;101677.88;;;17.88
77789;BMP280;66980;44.384;0.512;2023-03-02T07:31:04;101688.50;;;18.03
77789;BMP280;66980;44.384;0.512;2023-03-02T07:33:30;101688.59;;;17.92
77789;BMP280;66980;44.384;0.512;2023-03-02T07:35:55;101694.88;;;17.87
77789;BMP280;66980;44.384;0.512;2023-03-02T07:38:21;101695.88;;;17.89
77789;BMP280;66980;44.384;0.512;2023-03-02T07:40:46;101697.59;;;17.92
77789;BMP280;66980;44.384;0.512;2023-03-02T07:43:12;101696.03;;;18.03
77789;BMP280;66980;44.384;0.512;2023-03-02T07:45:37;101707.38;;;18.18
77789;BMP280;66980;44.384;0.512;2023-03-02T07:48:03;101705.03;;;18.33
77789;BMP280;66980;44.384;0.512;2023-03-02T07:50:30;101701.19;;;18.42
77789;BMP280;66980;44.384;0.512;2023-03-02T07:52:55;101699.09;;;18.54
77789;BMP280;66980;44.384;0.512;2023-03-02T07:55:21;101705.47;;;18.67
77789;BMP280;66980;44.384;0.512;2023-03-02T07:57:46;101708.69;;;18.71
77789;BMP280;66980;44.384;0.512;2023-03-02T08:00:12;101707.41;;;18.73
77789;BMP280;66980;44.384;0.512;2023-03-02T08:02:39;101707.88;;;18.77
77789;BMP280;66980;44.384;0.512;2023-03-02T08:05:05;101712.78;;;18.84
77789;BMP280;66980;44.384;0.512;2023-03-02T08:07:31;101714.75;;;18.89
77789;BMP280;66980;44.384;0.512;2023-03-02T08:09:57;101708.88;;;18.98
77789;BMP280;66980;44.384;0.512;2023-03-02T08:12:22;101710.03;;;19.08
77789;BMP280;66980;44.384;0.512;2023-03-02T08:14:48;101712.84;;;19.21
77789;BMP280;66980;44.384;0.512;2023-03-02T08:17:13;101714.53;;;19.30
77789;BMP280;66980;44.384;0.512;2023-03-02T08:19:39;101709.25;;;19.51
77789;BMP280;66980;44.384;0.512;2023-03-02T08:22:04;101713.09;;;19.61
77789;BMP280;66980;44.384;0.512;2023-03-02T08:24:30;101715.63;;;19.78
77789;BMP280;66980;44.384;0.512;2023-03-02T08:26:59;101712.63;;;19.95
77789;BMP280;66980;44.384;0.512;2023-03-02T08:29:25;101711.91;;;20.08
77789;BMP280;66980;44.384;0.512;2023-03-02T08:31:50;101711.97;;;20.21
77789;BMP280;66980;44.384;0.512;2023-03-02T08:34:16;101713.34;;;20.28
77789;BMP280;66980;44.384;0.512;2023-03-02T08:36:41;101708.56;;;20.28
77789;BMP280;66980;44.384;0.512;2023-03-02T08:39:08;101716.19;;;20.35
77789;BMP280;66980;44.384;0.512;2023-03-02T08:41:34;101724.69;;;20.37
77789;BMP280;66980;44.384;0.512;2023-03-02T08:44:00;101720.38;;;20.42
77789;BMP280;66980;44.384;0.512;2023-03-02T08:46:25;101713.91;;;20.53
77789;BMP280;66980;44.384;0.512;2023-03-02T08:48:51;101716.78;;;20.60
77789;BMP280;66980;44.384;0.512;2023-03-02T08:51:19;101720.16;;;20.66
77789;BMP280;66980;44.384;0.512;2023-03-02T08:53:46;101723.34;;;20.70
77789;BMP280;66980;44.384;0.512;2023-03-02T08:59:08;101722.72;;;20.51
77789;BMP280;66980;44.384;0.512;2023-03-02T09:01:38;101719.09;;;20.43
77789;BMP280;66980;44.384;0.512;2023-03-02T09:04:06;101721.94;;;20.37
77789;BMP280;66980;44.384;0.512;2023-03-02T09:06:35;101713.16;;;20.39
77789;BMP280;66980;44.384;0.512;2023-03-02T09:09:01;101717.81;;;20.44
77789;BMP280;66980;44.384;0.512;2023-03-02T09:11:26;101720.25;;;20.48
77789;BMP280;66980;44.384;0.512;2023-03-02T09:13:52;101715.69;;;20.50
77789;BMP280;66980;44.384;0.512;2023-03-02T09:16:18;101719.53;;;20.47
77789;BMP280;66980;44.384;0.512;2023-03-02T09:18:45;101721.44;;;20.52
77789;BMP280;66980;44.384;0.512;2023-03-02T09:21:10;101713.69;;;20.51
77789;BMP280;66980;44.384;0.512;2023-03-02T09:23:36;101714.94;;;20.50
77789;BMP280;66980;44.384;0.512;2023-03-02T09:26:03;101713.59;;;20.56
77789;BMP280;66980;44.384;0.512;2023-03-02T09:28:29;101723.34;;;20.57
77789;BMP280;66980;44.384;0.512;2023-03-02T09:30:59;101713.03;;;20.58
77789;BMP280;66980;44.384;0.512;2023-03-02T09:33:26;101717.81;;;20.57
77789;BMP280;66980;44.384;0.512;2023-03-02T09:35:51;101723.34;;;20.57
77789;BMP280;66980;44.384;0.512;2023-03-02T09:38:17;101712.53;;;20.59
77789;BMP280;66980;44.384;0.512;2023-03-02T09:46:22;101729.09;;;20.59
77789;BMP280;66980;44.384;0.512;2023-03-02T09:49:20;101720.81;;;20.59
77789;BMP280;66980;44.384;0.512;2023-03-02T09:54:27;101730.56;;;20.60
77789;BMP280;66980;44.384;0.512;2023-03-02T09:56:56;101722.84;;;20.59
77789;BMP280;66980;44.384;0.512;2023-03-02T09:59:25;101725.34;;;20.57
77789;BMP280;66980;44.384;0.512;2023-03-02T10:01:59;101726.63;;;20.56
77789;BMP280;66980;44.384;0.512;2023-03-02T10:04:57;101713.91;;;20.53
77789;BMP280;66980;44.384;0.512;2023-03-02T10:07:32;101716.88;;;20.55
77789;BMP280;66980;44.384;0.512;2023-03-02T10:10:45;101725.34;;;20.57
77789;BMP280;66980;44.384;0.512;2023-03-02T10:19:09;101729.16;;;20.54
77789;BMP280;66980;44.384;0.512;2023-03-02T10:21:40;101723.66;;;20.40
77789;BMP280;66980;44.384;0.512;2023-03-02T10:24:37;101734.34;;;20.31
77789;BMP280;66980;44.384;0.512;2023-03-02T10:27:25;101736.56;;;20.32
77789;BMP280;66980;44.384;0.512;2023-03-02T10:29:58;101735.50;;;20.35
77789;BMP280;66980;44.384;0.512;2023-03-02T10:32:37;101731.28;;;20.34
77789;BMP280;66980;44.384;0.512;2023-03-02T10:35:21;101727.00;;;20.33
77789;BMP280;66980;44.384;0.512;2023-03-02T10:37:50;101731.28;;;20.34
77789;BMP280;66980;44.384;0.512;2023-03-02T10:43:05;101737.81;;;20.31
77789;BMP280;66980;44.384;0.512;2023-03-02T10:45:31;101740.41;;;20.29
77789;BMP280;66980;44.384;0.512;2023-03-02T10:48:05;101736.25;;;20.36
77789;BMP280;66980;44.384;0.512;2023-03-02T10:50:31;101748.03;;;20.36
77789;BMP280;66980;44.384;0.512;2023-03-02T10:52:57;101739.31;;;20.32
77789;BMP280;66980;44.384;0.512;2023-03-02T10:55:23;101744.75;;;20.38
77789;BMP280;66980;44.384;0.512;2023-03-02T10:58:23;101750.47;;;20.40
77789;BMP280;66980;44.384;0.512;2023-03-02T11:01:16;101750.47;;;20.40
77789;BMP280;66980;44.384;0.512;2023-03-02T11:03:42;101750.47;;;20.40
77789;BMP280;66980;44.384;0.512;2023-03-02T11:06:19;101746.97;;;20.39
77789;BMP280;66980;44.384;0.512;2023-03-02T11:09:03;101759.06;;;20.36
77789;BMP280;66980;44.384;0.512;2023-03-02T11:11:29;101759.06;;;20.36
77789;BMP280;66980;44.384;0.512;2023-03-02T11:13:55;101762.34;;;20.35
77789;BMP280;66980;44.384;0.512;2023-03-02T11:16:31;101757.56;;;20.35
77789;BMP280;66980;44.384;0.512;2023-03-02T11:19:02;101747.09;;;20.34
77789;BMP280;66980;44.384;0.512;2023-03-02T11:21:55;101746.31;;;20.33
77789;BMP280;66980;44.384;0.512;2023-03-02T11:26:51;101754.09;;;20.35
77789;BMP280;66980;44.384;0.512;2023-03-02T11:29:56;101745.06;;;20.34
77789;BMP280;66980;44.384;0.512;2023-03-02T11:37:54;101750.44;;;20.27
77789;BMP280;66980;44.384;0.512;2023-03-02T11:40:54;101748.66;;;20.29
77789;BMP280;66980;44.384;0.512;2023-03-02T11:43:18;101754.19;;;20.29
77789;BMP280;66980;44.384;0.512;2023-03-02T11:45:45;101756.50;;;20.25
77789;BMP280;66980;44.384;0.512;2023-03-02T11:51:04;101757.06;;;20.50
77789;BMP280;66980;44.384;0.512;2023-03-02T11:53:58;101744.25;;;20.66
77789;BMP280;66980;44.384;0.512;2023-03-02T11:56:28;101750.34;;;20.78
77789;BMP280;66980;44.384;0.512;2023-03-02T11:58:59;101753.19;;;20.85
77789;BMP280;66980;44.384;0.512;2023-03-02T12:01:26;101750.72;;;21.08
77789;BMP280;66980;44.384;0.512;2023-03-02T12:03:52;101738.66;;;21.45
77789;BMP280;66980;44.384;0.512;2023-03-02T12:08:49;101745.03;;;21.75
77789;BMP280;66980;44.384;0.512;2023-03-02T12:14:04;101732.56;;;21.81
77789;BMP280;66980;44.384;0.512;2023-03-02T12:19:24;101730.13;;;21.78
77789;BMP280;66980;44.384;0.512;2023-03-02T12:22:03;101733.50;;;21.84
77789;BMP280;66980;44.384;0.512;2023-03-02T12:24:36;101730.13;;;21.99
77789;BMP280;66980;44.384;0.512;2023-03-02T12:27:24;101735.53;;;22.04
77789;BMP280;66980;44.384;0.512;2023-03-02T12:29:54;101729.25;;;22.04
77789;BMP280;66980;44.384;0.512;2023-03-02T12:32:27;101725.34;;;21.99
77789;BMP280;66980;44.384;0.512;2023-03-02T12:35:00;101729.41;;;21.98
77789;BMP280;66980;44.384;0.512;2023-03-02T12:37:30;101719.25;;;22.01
77789;BMP280;66980;44.384;0.512;2023-03-02T12:45:42;101718.19;;;21.83
77789;BMP280;66980;44.384;0.512;2023-03-02T12:48:18;101718.19;;;21.83
77789;BMP280;66980;44.384;0.512;2023-03-02T12:50:47;101715.63;;;21.85
77789;BMP280;66980;44.384;0.512;2023-03-02T12:53:18;101715.84;;;21.87
77789;BMP280;66980;44.384;0.512;2023-03-02T12:55:44;101713.22;;;21.81
77789;BMP280;66980;44.384;0.512;2023-03-02T12:58:16;101708.00;;;21.78
77789;BMP280;66980;44.384;0.512;2023-03-02T13:00:49;101705.06;;;21.76
77789;BMP280;66980;44.384;0.512;2023-03-02T13:03:15;101698.97;;;21.77
77789;BMP280;66980;44.384;0.512;2023-03-02T13:05:40;101691.25;;;21.76
77789;BMP280;66980;44.384;0.512;2023-03-02T13:08:15;101700.28;;;21.76
77789;BMP280;66980;44.384;0.512;2023-03-02T13:10:47;101692.53;;;21.75
77789;BMP280;66980;44.384;0.512;2023-03-02T13:13:14;101691.75;;;21.74
77789;BMP280;66980;44.384;0.512;2023-03-02T13:16:20;101683.81;;;21.70
77789;BMP280;66980;44.384;0.512;2023-03-02T13:18:46;101681.59;;;21.69
77789;BMP280;66980;44.384;0.512;2023-03-02T13:21:14;101681.59;;;21.69
77789;BMP280;66980;44.384;0.512;2023-03-02T13:23:50;101683.63;;;21.68
77789;BMP280;66980;44.384;0.512;2023-03-02T13:26:24;101683.22;;;21.64
77789;BMP280;66980;44.384;0.512;2023-03-02T13:29:03;101680.78;;;21.61
77789;BMP280;66980;44.384;0.512;2023-03-02T13:31:29;101689.59;;;21.59
77789;BMP280;66980;44.384;0.512;2023-03-02T13:33:56;101685.38;;;21.58
77789;BMP280;66980;44.384;0.512;2023-03-02T13:36:25;101680.16;;;21.55
77789;BMP280;66980;44.384;0.512;2023-03-02T13:38:56;101674.97;;;21.51
77789;BMP280;66980;44.384;0.512;2023-03-02T13:41:34;101679.75;;;21.51
77789;BMP280;66980;44.384;0.512;2023-03-02T13:44:20;101680.09;;;21.47
77789;BMP280;66980;44.384;0.512;2023-03-02T13:46:48;101691.69;;;21.45
77789;BMP280;66980;44.384;0.512;2023-03-02T13:49:27;101690.00;;;21.42
77789;BMP280;66980;44.384;0.512;2023-03-02T13:52:03;101690.34;;;21.39
77789;BMP280;66980;44.384;0.512;2023-03-02T13:54:31;101694.88;;;21.36
77789;BMP280;66980;44.384;0.512;2023-03-02T13:57:00;101690.44;;;21.33
77789;BMP280;66980;44.384;0.512;2023-03-02T13:59:27;101691.72;;;21.32
77789;BMP280;66980;44.384;0.512;2023-03-02T14:01:53;101684.50;;;21.29
77789;BMP280;66980;44.384;0.512;2023-03-02T14:04:19;101684.84;;;21.26
77789;BMP280;66980;44.384;0.512;2023-03-02T14:06:48;101679.44;;;21.20
77789;BMP280;66980;44.384;0.512;2023-03-02T14:09:14;101692.38;;;21.25
77789;BMP280;66980;44.384;0.512;2023-03-02T14:11:43;101690.34;;;21.26
77789;BMP280;66980;44.384;0.512;2023-03-02T14:14:18;101685.78;;;21.28
77789;BMP280;66980;44.384;0.512;2023-03-02T14:16:44;101688.16;;;21.45
77789;BMP280;66980;44.384;0.512;2023-03-02T14:19:12;101691.22;;;21.55
77789;BMP280;66980;44.384;0.512;2023-03-02T14:21:38;101691.22;;;21.55
77789;BMP280;66980;44.384;0.512;2023-03-02T14:24:07;101685.09;;;21.90
77789;BMP280;66980;44.384;0.512;2023-03-02T14:26:34;101682.09;;;22.09
77789;BMP280;66980;44.384;0.512;2023-03-02T14:29:08;101684.13;;;22.09
77789;BMP280;66980;44.384;0.512;2023-03-02T14:31:37;101676.53;;;22.30
77789;BMP280;66980;44.384;0.512;2023-03-02T14:34:02;101671.00;;;22.30
77789;BMP280;66980;44.384;0.512;2023-03-02T14:36:31;101680.28;;;22.48
77789;BMP280;66980;44.384;0.512;2023-03-02T14:39:03;101675.50;;;22.85
77789;BMP280;66980;44.384;0.512;2023-03-02T14:41:30;101667.06;;;23.13
77789;BMP280;66980;44.384;0.512;2023-03-02T14:43:56;101671.38;;;23.30
77789;BMP280;66980;44.384;0.512;2023-03-02T14:46:22;101676.72;;;23.50
77789;BMP280;66980;44.384;0.512;2023-03-02T14:48:48;101673.97;;;23.66
77789;BMP280;66980;44.384;0.512;2023-03-02T14:51:26;101682.13;;;23.79